createdAt,value
2017-03-13T00:00:59.426Z,0
2017-03-13T00:02:41.816Z,0
2017-03-13T00:04:29.250Z,0
2017-03-13T00:06:11.804Z,0
2017-03-13T00:07:59.326Z,0
2017-03-13T00:09:56.810Z,0
2017-03-13T00:11:44.370Z,0
2017-03-13T00:13:37.000Z,0
2017-03-13T00:15:34.742Z,0
2017-03-13T00:17:27.007Z,0
2017-03-13T00:19:19.323Z,0
2017-03-13T00:21:11.804Z,0
2017-03-13T00:23:04.190Z,0
2017-03-13T00:25:11.760Z,0
2017-03-13T00:26:49.077Z,0
2017-03-13T00:28:51.403Z,0
2017-03-13T00:30:38.838Z,0
2017-03-13T00:32:36.289Z,0
2017-03-13T00:34:23.527Z,0
2017-03-13T00:36:16.871Z,0
2017-03-13T00:37:54.374Z,0
2017-03-13T00:39:46.599Z,0
2017-03-13T00:41:44.017Z,0
2017-03-13T00:43:41.289Z,0
2017-03-13T00:45:29.591Z,0
2017-03-13T00:47:22.242Z,0
2017-03-13T00:49:09.835Z,0
2017-03-13T00:51:07.154Z,0
2017-03-13T00:53:01.934Z,0
2017-03-13T00:55:12.563Z,0
2017-03-13T00:57:20.245Z,0
2017-03-13T00:59:07.629Z,0
2017-03-13T01:00:54.978Z,0
2017-03-13T01:02:42.572Z,0
2017-03-13T01:04:25.072Z,0
2017-03-13T01:06:07.390Z,0
2017-03-13T01:07:59.768Z,0
2017-03-13T01:09:57.097Z,0
2017-03-13T01:11:44.394Z,0
2017-03-13T01:13:21.898Z,0
2017-03-13T01:14:59.287Z,0
2017-03-13T01:16:51.649Z,0
2017-03-13T01:18:39.112Z,0
2017-03-13T01:20:31.494Z,0
2017-03-13T01:22:19.121Z,0
2017-03-13T01:24:12.830Z,0
2017-03-13T01:26:05.181Z,0
2017-03-13T01:27:57.607Z,0
2017-03-13T01:29:40.127Z,0
2017-03-13T01:31:32.411Z,0
2017-03-13T01:33:25.701Z,0
2017-03-13T01:35:18.214Z,0
2017-03-13T01:37:05.744Z,0
2017-03-13T01:38:58.096Z,0
2017-03-13T01:40:55.353Z,0
2017-03-13T01:42:42.636Z,0
2017-03-13T01:44:19.866Z,0
2017-03-13T01:46:12.123Z,0
2017-03-13T01:47:59.600Z,0
2017-03-13T01:49:52.061Z,0
2017-03-13T01:51:39.437Z,0
2017-03-13T01:53:31.873Z,0
2017-03-13T01:55:19.480Z,0
2017-03-13T01:57:07.168Z,0
2017-03-13T01:58:54.601Z,0
2017-03-13T02:00:56.994Z,0
2017-03-13T02:02:54.534Z,0
2017-03-13T02:04:36.953Z,0
2017-03-13T02:06:24.293Z,0
2017-03-13T02:08:16.641Z,0
2017-03-13T02:09:58.878Z,0
2017-03-13T02:11:41.168Z,0
2017-03-13T02:13:28.752Z,0
2017-03-13T02:15:21.109Z,0
2017-03-13T02:17:03.409Z,0
2017-03-13T02:18:40.762Z,0
2017-03-13T02:20:23.073Z,0
2017-03-13T02:22:15.384Z,0
2017-03-13T02:23:57.919Z,0
2017-03-13T02:25:55.159Z,0
2017-03-13T02:27:42.680Z,0
2017-03-13T02:29:45.476Z,0
2017-03-13T02:31:42.696Z,0
2017-03-13T02:33:40.124Z,0
2017-03-13T02:35:27.681Z,0
2017-03-13T02:37:20.104Z,0
2017-03-13T02:39:12.670Z,0
2017-03-13T02:40:55.215Z,0
2017-03-13T02:42:47.585Z,0
2017-03-13T02:44:40.020Z,0
2017-03-13T02:46:37.405Z,0
2017-03-13T02:48:24.929Z,0
2017-03-13T02:50:02.325Z,0
2017-03-13T02:51:49.648Z,0
2017-03-13T02:53:41.962Z,0
2017-03-13T02:55:39.498Z,0
2017-03-13T02:57:21.924Z,0
2017-03-13T02:59:19.315Z,0
2017-03-13T03:00:56.920Z,0
2017-03-13T03:02:49.752Z,0
2017-03-13T03:04:42.542Z,0
2017-03-13T03:06:39.796Z,0
2017-03-13T03:08:27.322Z,0
2017-03-13T03:10:14.783Z,0
2017-03-13T03:12:07.247Z,0
2017-03-13T03:14:09.507Z,0
2017-03-13T03:16:11.766Z,0
2017-03-13T03:18:04.019Z,0
2017-03-13T03:19:46.493Z,0
2017-03-13T03:21:23.893Z,0
2017-03-13T03:23:11.161Z,0
2017-03-13T03:25:03.783Z,0
2017-03-13T03:27:01.155Z,0
2017-03-13T03:28:53.489Z,0
2017-03-13T03:30:50.844Z,0
2017-03-13T03:32:38.176Z,0
2017-03-13T03:34:30.483Z,0
2017-03-13T03:36:08.006Z,0
2017-03-13T03:38:05.569Z,0
2017-03-13T03:40:03.221Z,0
2017-03-13T03:42:00.646Z,0
2017-03-13T03:43:58.043Z,0
2017-03-13T03:45:45.313Z,0
2017-03-13T03:47:27.660Z,0
2017-03-13T03:49:24.824Z,0
2017-03-13T03:51:02.265Z,0
2017-03-13T03:52:54.474Z,0
2017-03-13T03:54:36.951Z,0
2017-03-13T03:56:24.178Z,0
2017-03-13T03:58:06.709Z,0
2017-03-13T04:00:03.925Z,0
2017-03-13T04:02:01.174Z,0
2017-03-13T04:03:58.470Z,0
2017-03-13T04:05:55.368Z,0
2017-03-13T04:07:50.286Z,0
2017-03-13T04:09:47.627Z,0
2017-03-13T04:11:41.326Z,0
2017-03-13T04:13:39.319Z,0
2017-03-13T04:15:22.135Z,0
2017-03-13T04:17:15.072Z,0
2017-03-13T04:19:13.257Z,0
2017-03-13T04:21:14.589Z,0
2017-03-13T04:23:07.324Z,0
2017-03-13T04:24:57.744Z,0
2017-03-13T04:27:00.316Z,0
2017-03-13T04:28:53.428Z,0
2017-03-13T04:30:46.281Z,0
2017-03-13T04:32:46.538Z,0
2017-03-13T04:34:43.811Z,0
2017-03-13T04:36:47.042Z,0
2017-03-13T04:38:54.410Z,0
2017-03-13T04:40:54.533Z,0
2017-03-13T04:42:58.318Z,0
2017-03-13T04:44:50.784Z,0
2017-03-13T04:46:43.738Z,0
2017-03-13T04:48:31.663Z,0
2017-03-13T04:50:28.954Z,0
2017-03-13T04:52:17.913Z,0
2017-03-13T04:54:16.339Z,0
2017-03-13T04:56:25.159Z,0
2017-03-13T04:58:08.010Z,0
2017-03-13T04:59:50.682Z,0
2017-03-13T05:01:33.158Z,0
2017-03-13T05:03:21.724Z,0
2017-03-13T05:05:24.646Z,0
2017-03-13T05:07:14.076Z,0
2017-03-13T05:09:11.628Z,0
2017-03-13T05:11:04.844Z,0
2017-03-13T05:12:58.478Z,0
2017-03-13T05:14:47.046Z,0
2017-03-13T05:16:40.333Z,0
2017-03-13T05:18:38.548Z,0
2017-03-13T05:20:35.317Z,0
2017-03-13T05:22:39.946Z,0
2017-03-13T05:24:48.412Z,0
2017-03-13T05:26:40.756Z,0
2017-03-13T05:28:29.726Z,0
2017-03-13T05:30:12.775Z,0
2017-03-13T05:32:06.797Z,0
2017-03-13T05:34:11.189Z,0
2017-03-13T05:36:04.983Z,0
2017-03-13T05:38:03.124Z,0
2017-03-13T05:40:05.072Z,0
2017-03-13T05:42:07.420Z,0
2017-03-13T05:44:01.168Z,0
2017-03-13T05:46:12.683Z,0
2017-03-13T05:48:02.836Z,0
2017-03-13T05:50:07.156Z,0
2017-03-13T05:51:56.529Z,0
2017-03-13T05:54:17.790Z,0
2017-03-13T05:56:38.602Z,0
2017-03-13T05:59:00.678Z,0
2017-03-13T06:01:15.249Z,0
2017-03-13T06:03:41.843Z,0
2017-03-13T06:05:37.601Z,0
2017-03-13T06:07:40.520Z,0
2017-03-13T06:09:52.085Z,0
2017-03-13T06:11:51.602Z,0
2017-03-13T06:13:46.206Z,0
2017-03-13T06:15:47.420Z,0
2017-03-13T06:17:34.750Z,0
2017-03-13T06:19:28.138Z,0
2017-03-13T06:21:21.774Z,0
2017-03-13T06:23:10.102Z,0
2017-03-13T06:25:08.272Z,0
2017-03-13T06:27:12.637Z,0
2017-03-13T06:28:56.007Z,0
2017-03-13T06:30:44.580Z,0
2017-03-13T06:32:32.419Z,0
2017-03-13T06:34:16.512Z,0
2017-03-13T06:36:15.432Z,0
2017-03-13T06:38:10.298Z,0
2017-03-13T06:39:52.875Z,0
2017-03-13T06:41:50.898Z,0
2017-03-13T06:43:43.223Z,0
2017-03-13T06:45:36.593Z,0
2017-03-13T06:47:29.973Z,0
2017-03-13T06:49:27.902Z,0
2017-03-13T06:51:17.034Z,0
2017-03-13T06:52:57.168Z,0
2017-03-13T06:54:44.611Z,0
2017-03-13T06:56:32.657Z,0
2017-03-13T06:58:35.235Z,0
2017-03-13T07:00:27.693Z,0
2017-03-13T07:02:25.086Z,0
2017-03-13T07:04:17.638Z,0
2017-03-13T07:06:20.247Z,0
2017-03-13T07:08:22.904Z,0
2017-03-13T07:10:20.501Z,0
2017-03-13T07:12:17.881Z,0
2017-03-13T07:14:10.244Z,0
2017-03-13T07:16:12.704Z,0
2017-03-13T07:18:10.153Z,0
2017-03-13T07:20:07.693Z,0
2017-03-13T07:21:45.134Z,0
2017-03-13T07:23:42.669Z,0
2017-03-13T07:25:35.767Z,0
2017-03-13T07:27:33.040Z,0
2017-03-13T07:29:25.487Z,0
2017-03-13T07:31:23.333Z,0
2017-03-13T07:33:16.515Z,0
2017-03-13T07:35:09.232Z,0
2017-03-13T07:37:06.844Z,0
2017-03-13T07:39:14.996Z,0
2017-03-13T07:41:08.246Z,0
2017-03-13T07:43:11.127Z,0
2017-03-13T07:45:04.088Z,0
2017-03-13T07:46:56.977Z,0
2017-03-13T07:48:49.804Z,0
2017-03-13T07:50:57.264Z,0
2017-03-13T07:52:52.426Z,0
2017-03-13T07:54:42.723Z,0
2017-03-13T07:56:30.195Z,0
2017-03-13T07:58:22.569Z,0
2017-03-13T08:00:10.040Z,0
2017-03-13T08:01:57.646Z,0
2017-03-13T08:03:50.066Z,0
2017-03-13T08:05:32.555Z,0
2017-03-13T08:07:19.983Z,0
2017-03-13T08:09:17.314Z,0
2017-03-13T08:11:04.613Z,0
2017-03-13T08:12:52.063Z,0
2017-03-13T08:14:49.797Z,0
2017-03-13T08:16:57.473Z,0
2017-03-13T08:18:54.746Z,0
2017-03-13T08:20:42.006Z,0
2017-03-13T08:22:39.320Z,0
2017-03-13T08:24:26.567Z,0
2017-03-13T08:26:34.897Z,0
2017-03-13T08:28:18.373Z,0
2017-03-13T08:30:36.567Z,0
2017-03-13T08:34:05.366Z,961.66
2017-03-13T08:35:59.800Z,961.71
2017-03-13T08:38:06.522Z,961.66
2017-03-13T08:40:19.514Z,961.7
2017-03-13T08:42:17.559Z,961.69
2017-03-13T08:44:30.289Z,961.72
2017-03-13T08:46:41.438Z,961.73
2017-03-13T08:48:49.691Z,961.71
2017-03-13T08:50:59.529Z,961.78
2017-03-13T08:53:21.220Z,961.84
2017-03-13T08:56:02.248Z,961.88
2017-03-13T08:58:49.968Z,961.88
2017-03-13T09:01:39.859Z,961.88
2017-03-13T09:04:07.114Z,961.95
2017-03-13T09:06:38.254Z,961.93
2017-03-13T09:09:08.410Z,962.03
2017-03-13T09:11:31.123Z,962.01
2017-03-13T09:13:59.015Z,961.99
2017-03-13T09:16:28.553Z,962
2017-03-13T09:18:56.475Z,962.04
2017-03-13T09:21:30.477Z,961.86
2017-03-13T09:23:56.155Z,961.75
2017-03-13T09:25:57.266Z,961.61
2017-03-13T09:27:55.027Z,961.57
2017-03-13T09:29:52.568Z,961.56
2017-03-13T09:31:39.940Z,961.59
2017-03-13T09:33:32.432Z,961.61
2017-03-13T09:35:24.853Z,961.63
2017-03-13T09:37:07.242Z,961.59
2017-03-13T09:39:04.574Z,961.57
2017-03-13T09:41:01.975Z,961.54
2017-03-13T09:43:15.820Z,961.58
2017-03-13T09:45:04.998Z,961.58
2017-03-13T09:47:04.672Z,961.58
2017-03-13T09:49:11.325Z,961.61
2017-03-13T09:51:24.719Z,961.57
2017-03-13T09:53:18.674Z,961.58
2017-03-13T09:55:15.968Z,961.62
2017-03-13T09:57:08.434Z,961.61
2017-03-13T09:58:50.843Z,961.68
2017-03-13T10:00:43.490Z,961.71
2017-03-13T10:02:51.600Z,961.72
2017-03-13T10:04:29.508Z,961.78
2017-03-13T10:06:27.444Z,961.75
2017-03-13T10:08:20.395Z,961.77
2017-03-13T10:10:08.190Z,961.82
2017-03-13T10:12:11.148Z,961.78
2017-03-13T10:14:08.987Z,961.77
2017-03-13T10:15:56.914Z,961.76
2017-03-13T10:17:54.187Z,961.75
2017-03-13T10:19:36.700Z,961.74
2017-03-13T10:21:33.989Z,961.73
2017-03-13T10:23:24.563Z,961.72
2017-03-13T10:25:26.865Z,961.66
2017-03-13T10:27:19.803Z,961.66
2017-03-13T10:29:12.199Z,961.6
2017-03-13T10:31:04.602Z,961.63
2017-03-13T10:32:42.201Z,961.62
2017-03-13T10:34:34.669Z,961.59
2017-03-13T10:36:27.106Z,961.59
2017-03-13T10:38:24.777Z,961.54
2017-03-13T10:40:12.166Z,961.59
2017-03-13T10:41:49.653Z,961.57
2017-03-13T10:43:32.079Z,961.6
2017-03-13T10:45:24.469Z,961.63
2017-03-13T10:47:27.032Z,961.64
2017-03-13T10:49:19.375Z,961.63
2017-03-13T10:51:11.693Z,961.61
2017-03-13T10:52:59.226Z,961.64
2017-03-13T10:54:41.741Z,961.64
2017-03-13T10:56:34.067Z,961.68
2017-03-13T10:58:16.488Z,961.66
2017-03-13T11:00:08.962Z,961.66
2017-03-13T11:02:01.561Z,961.68
2017-03-13T11:03:49.551Z,961.69
2017-03-13T11:05:42.777Z,961.67
2017-03-13T11:07:40.150Z,961.66
2017-03-13T11:09:42.409Z,961.71
2017-03-13T11:11:40.098Z,961.74
2017-03-13T11:13:37.812Z,961.71
2017-03-13T11:15:30.376Z,961.69
2017-03-13T11:17:22.911Z,961.72
2017-03-13T11:19:10.684Z,961.67
2017-03-13T11:20:58.097Z,961.69
2017-03-13T11:22:45.511Z,961.65
2017-03-13T11:24:27.965Z,961.68
2017-03-13T11:26:15.532Z,961.68
2017-03-13T11:28:12.883Z,961.66
2017-03-13T11:30:05.440Z,961.63
2017-03-13T11:31:57.920Z,961.6
2017-03-13T11:33:50.464Z,961.61
2017-03-13T11:35:37.812Z,961.64
2017-03-13T11:37:26.251Z,961.59
2017-03-13T11:39:18.612Z,961.49
2017-03-13T11:41:06.191Z,961.44
2017-03-13T11:42:59.065Z,961.37
2017-03-13T11:44:51.561Z,961.4
2017-03-13T11:46:44.869Z,961.41
2017-03-13T11:48:37.891Z,961.41
2017-03-13T11:50:30.402Z,961.44
2017-03-13T11:52:28.611Z,961.44
2017-03-13T11:54:21.006Z,961.42
2017-03-13T11:56:23.506Z,961.4
2017-03-13T11:58:05.907Z,961.36
2017-03-13T11:59:43.435Z,961.36
2017-03-13T12:01:35.842Z,961.34
2017-03-13T12:03:28.294Z,961.29
2017-03-13T12:05:17.432Z,961.26
2017-03-13T12:06:59.775Z,961.22
2017-03-13T12:09:07.112Z,961.18
2017-03-13T12:10:54.507Z,961.23
2017-03-13T12:12:36.894Z,961.24
2017-03-13T12:14:14.301Z,961.25
2017-03-13T12:16:11.867Z,961.29
2017-03-13T12:17:56.973Z,961.29
2017-03-13T12:19:39.752Z,961.31
2017-03-13T12:21:42.509Z,961.3
2017-03-13T12:23:30.611Z,961.27
2017-03-13T12:25:23.307Z,961.26
2017-03-13T12:27:20.741Z,961.25
2017-03-13T12:29:13.183Z,961.21
2017-03-13T12:31:10.774Z,961.22
2017-03-13T12:32:53.255Z,961.18
2017-03-13T12:34:45.520Z,961.23
2017-03-13T12:36:42.817Z,961.22
2017-03-13T12:38:45.132Z,961.19
2017-03-13T12:40:32.449Z,961.23
2017-03-13T12:42:24.913Z,961.25
2017-03-13T12:44:12.361Z,961.29
2017-03-13T12:45:55.663Z,961.3
2017-03-13T12:47:53.172Z,961.31
2017-03-13T12:49:48.810Z,961.32
2017-03-13T12:55:04.574Z,961.26
2017-03-13T12:57:07.428Z,961.25
2017-03-13T12:59:10.611Z,961.3
2017-03-13T13:01:23.865Z,961.29
2017-03-13T13:03:36.239Z,961.26
2017-03-13T13:05:50.751Z,961.33
2017-03-13T13:08:04.389Z,961.3
2017-03-13T13:10:19.914Z,961.34
2017-03-13T13:12:28.309Z,961.33
2017-03-13T13:14:43.447Z,961.32
2017-03-13T13:16:59.040Z,961.33
